WXForecasting.com
Harvey, MI - Weather Station Data
 
Daily Summary for July 22, 2014 Units:  English    Metric   Both
« Previous Day
Next Day »
Daily Weekly Monthly Yearly Custom
  Current: High: Low: Average:
Temperature: 66.6 °F 83.9 °F 66.6 °F 74.6 °F
Dew Point: 57.0 °F 73.0 °F 57.0 °F 66.6 °F
Humidity: 72% 87% 59% 76%
Wind Speed: 3.0mph 8.0mph 0.0mph 2.1mph
Wind Gust: 5.0mph 16.0mph - -
WindNE - - SW
Pressure: 29.95 in 29.95 in 29.61 in -
Precipitation: 0.00 in      
Historical Graphs
 
 
Tabular Data for July 22, 2014
Time Temp Dew Point Pressure Wind Wind Speed Wind Gust RH Rain Rate/Hour
00:14 75.3 °F 68.0 °F 29.84 in South 4.0 mph 8.0 mph 78% 0.00 in
00:29 74.8 °F 68.0 °F 29.84 in South 2.0 mph 8.0 mph 79% 0.00 in
00:44 74.3 °F 68.0 °F 29.84 in Calm   7.0 mph 80% 0.00 in
00:59 74.0 °F 68.0 °F 29.84 in South 1.0 mph 4.0 mph 80% 0.00 in
01:14 73.7 °F 68.0 °F 29.83 in SSE 5.0 mph 7.0 mph 81% 0.00 in
01:29 73.4 °F 67.0 °F 29.82 in Calm   3.0 mph 81% 0.00 in
01:44 73.1 °F 67.0 °F 29.82 in South 5.0 mph 7.0 mph 81% 0.00 in
01:59 72.9 °F 67.0 °F 29.82 in SSW 2.0 mph 6.0 mph 81% 0.00 in
02:14 72.7 °F 67.0 °F 29.82 in Calm   5.0 mph 81% 0.00 in
02:29 72.8 °F 67.0 °F 29.82 in SSW 1.0 mph 5.0 mph 81% 0.00 in
02:44 72.7 °F 67.0 °F 29.81 in South 1.0 mph 6.0 mph 82% 0.00 in
02:59 72.5 °F 67.0 °F 29.80 in SSE 2.0 mph 7.0 mph 82% 0.00 in
03:14 72.7 °F 67.0 °F 29.79 in Calm   5.0 mph 82% 0.00 in
03:29 72.9 °F 67.0 °F 29.79 in SSE 1.0 mph 6.0 mph 81% 0.00 in
03:44 72.8 °F 67.0 °F 29.77 in South 1.0 mph 6.0 mph 82% 0.00 in
04:00 73.1 °F 67.0 °F 29.77 in South 2.0 mph 9.0 mph 81% 0.00 in
04:14 73.1 °F 67.0 °F 29.75 in SSW 3.0 mph 10.0 mph 81% 0.00 in
04:29 73.0 °F 67.0 °F 29.75 in SSE 4.0 mph 12.0 mph 81% 0.00 in
04:44 73.0 °F 67.0 °F 29.74 in South 8.0 mph 12.0 mph 81% 0.00 in
04:59 72.8 °F 67.0 °F 29.74 in South 4.0 mph 14.0 mph 82% 0.00 in
05:14 72.9 °F 67.0 °F 29.75 in South 3.0 mph 14.0 mph 82% 0.00 in
05:30 73.0 °F 67.0 °F 29.75 in SSE 6.0 mph 11.0 mph 82% 0.00 in
05:45 73.0 °F 67.0 °F 29.77 in SSE 5.0 mph 9.0 mph 82% 0.00 in
06:00 72.9 °F 67.0 °F 29.76 in SSW 5.0 mph 8.0 mph 82% 0.00 in
06:15 73.0 °F 68.0 °F 29.76 in SSW 3.0 mph 10.0 mph 83% 0.00 in
06:30 73.3 °F 68.0 °F 29.77 in Calm   7.0 mph 83% 0.00 in
06:45 73.3 °F 68.0 °F 29.77 in Calm   3.0 mph 83% 0.00 in
07:00 73.3 °F 68.0 °F 29.77 in Calm   3.0 mph 83% 0.00 in
07:15 73.1 °F 68.0 °F 29.76 in SW 1.0 mph 2.0 mph 83% 0.00 in
07:30 72.9 °F 68.0 °F 29.77 in Calm     84% 0.00 in
07:45 72.4 °F 67.0 °F 29.76 in Calm   4.0 mph 84% 0.00 in
08:00 72.2 °F 68.0 °F 29.79 in Calm   2.0 mph 86% 0.00 in
08:15 72.1 °F 68.0 °F 29.76 in SSW 1.0 mph 3.0 mph 87% 0.00 in
08:30 71.9 °F 68.0 °F 29.71 in WSW 5.0 mph 6.0 mph 87% 0.00 in
08:45 71.8 °F 68.0 °F 29.69 in Calm   11.0 mph 87% 0.00 in
09:00 72.0 °F 68.0 °F 29.69 in South 8.0 mph 9.0 mph 86% 0.00 in
09:15 72.3 °F 68.0 °F 29.69 in SSW 4.0 mph 14.0 mph 86% 0.00 in
09:30 72.8 °F 68.0 °F 29.68 in SSW 4.0 mph 10.0 mph 86% 0.00 in
09:45 73.7 °F 69.0 °F 29.66 in South 5.0 mph 11.0 mph 85% 0.00 in
10:00 74.6 °F 70.0 °F 29.65 in SSW 4.0 mph 14.0 mph 84% 0.00 in
10:15 75.2 °F 70.0 °F 29.63 in South 4.0 mph 16.0 mph 83% 0.00 in
10:30 75.8 °F 70.0 °F 29.62 in SSW 1.0 mph 14.0 mph 83% 0.00 in
10:45 76.2 °F 71.0 °F 29.64 in SSW 5.0 mph 11.0 mph 83% 0.00 in
11:00 77.0 °F 71.0 °F 29.61 in SSW 2.0 mph 13.0 mph 82% 0.00 in
11:15 77.8 °F 72.0 °F 29.63 in South 2.0 mph 11.0 mph 81% 0.00 in
11:30 79.8 °F 73.0 °F 29.62 in Calm   12.0 mph 79% 0.00 in
12:00 78.7 °F 71.0 °F 29.64 in NW 3.0 mph 10.0 mph 76% 0.00 in
12:15 75.4 °F 69.0 °F 29.64 in West 1.0 mph 9.0 mph 81% 0.00 in
12:30 74.9 °F 69.0 °F 29.64 in Calm   6.0 mph 81% 0.00 in
12:45 77.8 °F 71.0 °F 29.64 in Calm   9.0 mph 80% 0.00 in
13:00 81.1 °F 72.0 °F 29.65 in SSW 3.0 mph 12.0 mph 73% 0.00 in
13:15 82.2 °F 72.0 °F 29.65 in ESE 2.0 mph 14.0 mph 70% 0.00 in
13:30 83.1 °F 70.0 °F 29.65 in Calm   6.0 mph 65% 0.00 in
13:46 83.9 °F 70.0 °F 29.67 in West 3.0 mph 11.0 mph 64% 0.00 in
14:01 83.2 °F 69.0 °F 29.69 in WNW 1.0 mph 13.0 mph 63% 0.00 in
14:16 83.4 °F 69.0 °F 29.69 in WNW 2.0 mph 9.0 mph 62% 0.00 in
14:31 83.0 °F 68.0 °F 29.70 in Calm   4.0 mph 61% 0.00 in
14:46 83.4 °F 67.0 °F 29.70 in NW 1.0 mph 6.0 mph 59% 0.00 in
15:01 83.9 °F 68.0 °F 29.72 in SSE 1.0 mph 5.0 mph 60% 0.00 in
15:16 82.2 °F 67.0 °F 29.74 in Calm   4.0 mph 61% 0.00 in
15:31 81.9 °F 67.0 °F 29.75 in Calm   4.0 mph 60% 0.00 in
15:46 81.6 °F 67.0 °F 29.75 in NW 1.0 mph 4.0 mph 62% 0.00 in
16:01 80.4 °F 66.0 °F 29.77 in Calm   7.0 mph 62% 0.00 in
16:31 78.4 °F 66.0 °F 29.78 in NW 1.0 mph 4.0 mph 66% 0.00 in
16:46 78.1 °F 65.0 °F 29.79 in Calm   3.0 mph 65% 0.00 in
17:16 76.2 °F 66.0 °F 29.81 in ENE 1.0 mph 4.0 mph 71% 0.00 in
17:31 75.0 °F 65.0 °F 29.81 in SE 1.0 mph 5.0 mph 71% 0.00 in
17:46 74.6 °F 65.0 °F 29.83 in Calm   5.0 mph 71% 0.00 in
18:01 74.4 °F 64.0 °F 29.84 in NW 1.0 mph 4.0 mph 70% 0.00 in
18:16 73.3 °F 62.0 °F 29.85 in Calm   8.0 mph 67% 0.00 in
18:31 71.9 °F 60.0 °F 29.87 in WNW 3.0 mph 9.0 mph 67% 0.00 in
18:46 70.1 °F 59.0 °F 29.88 in NNW 1.0 mph 8.0 mph 69% 0.00 in
19:01 69.1 °F 59.0 °F 29.89 in NW 5.0 mph 10.0 mph 69% 0.00 in
19:16 68.7 °F 59.0 °F 29.90 in NW 3.0 mph 10.0 mph 70% 0.00 in
19:31 68.4 °F 59.0 °F 29.91 in ENE 6.0 mph 8.0 mph 71% 0.00 in
19:46 67.8 °F 58.0 °F 29.92 in NW 3.0 mph 6.0 mph 71% 0.00 in
20:01 67.5 °F 58.0 °F 29.93 in Calm   5.0 mph 72% 0.00 in
20:16 67.3 °F 58.0 °F 29.93 in WNW 5.0 mph 8.0 mph 72% 0.00 in
20:31 67.1 °F 58.0 °F 29.94 in NW 1.0 mph 5.0 mph 72% 0.00 in
20:46 67.0 °F 58.0 °F 29.94 in NNW 4.0 mph 5.0 mph 72% 0.00 in
21:01 66.6 °F 57.0 °F 29.95 in NE 3.0 mph 5.0 mph 72% 0.00 in
Compliments of Weather Underground

5 Visitors online right now
Max visitors today: 25 at 11:08 am EDT
This month: 27 at 07-02-2014 07:16 am EDT
This year: 28 at 04-16-2014 07:15 am EDT
All time: 104 at 01-04-2012 03:34 am EST
See Who is Online